sensor_id;sensor_type;location;lat;lon;timestamp;pressure;altitude;pressure_sealevel;temperature;humidity
80502;BME280;70023;51.190;6.808;2023-12-20T00:02:26;101428.31;;;7.74;82.36
80502;BME280;70023;51.190;6.808;2023-12-20T00:07:27;101434.63;;;7.73;82.24
80502;BME280;70023;51.190;6.808;2023-12-20T00:12:28;101430.34;;;7.72;81.45
80502;BME280;70023;51.190;6.808;2023-12-20T00:17:29;101435.00;;;7.70;81.45
80502;BME280;70023;51.190;6.808;2023-12-20T00:22:30;101424.75;;;7.67;82.18
80502;BME280;70023;51.190;6.808;2023-12-20T00:27:31;101450.72;;;7.65;82.25
80502;BME280;70023;51.190;6.808;2023-12-20T00:32:32;101469.50;;;7.64;82.11
80502;BME280;70023;51.190;6.808;2023-12-20T00:37:34;101462.53;;;7.63;81.09
80502;BME280;70023;51.190;6.808;2023-12-20T00:42:35;101470.88;;;7.60;81.03
80502;BME280;70023;51.190;6.808;2023-12-20T00:47:36;101465.56;;;7.60;81.73
80502;BME280;70023;51.190;6.808;2023-12-20T00:52:37;101459.97;;;7.55;81.92
80502;BME280;70023;51.190;6.808;2023-12-20T00:57:41;101472.44;;;7.54;81.46
80502;BME280;70023;51.190;6.808;2023-12-20T01:02:42;101461.75;;;7.48;81.47
80502;BME280;70023;51.190;6.808;2023-12-20T01:07:43;101464.56;;;7.46;82.06
80502;BME280;70023;51.190;6.808;2023-12-20T01:12:44;101473.09;;;7.42;81.41
80502;BME280;70023;51.190;6.808;2023-12-20T01:17:45;101474.13;;;7.41;81.43
80502;BME280;70023;51.190;6.808;2023-12-20T01:22:47;101476.16;;;7.39;81.50
80502;BME280;70023;51.190;6.808;2023-12-20T01:27:48;101487.78;;;7.38;82.41
80502;BME280;70023;51.190;6.808;2023-12-20T01:32:50;101481.00;;;7.35;81.52
80502;BME280;70023;51.190;6.808;2023-12-20T01:37:51;101494.84;;;7.30;82.39
80502;BME280;70023;51.190;6.808;2023-12-20T01:42:59;101496.66;;;7.30;81.89
80502;BME280;70023;51.190;6.808;2023-12-20T01:48:06;101496.84;;;7.28;81.68
80502;BME280;70023;51.190;6.808;2023-12-20T01:53:08;101497.84;;;7.27;82.49
80502;BME280;70023;51.190;6.808;2023-12-20T01:58:12;101508.66;;;7.26;82.18
80502;BME280;70023;51.190;6.808;2023-12-20T02:03:14;101509.03;;;7.23;82.00
80502;BME280;70023;51.190;6.808;2023-12-20T02:08:17;101509.22;;;7.21;82.41
80502;BME280;70023;51.190;6.808;2023-12-20T02:13:18;101505.66;;;7.14;81.63
80502;BME280;70023;51.190;6.808;2023-12-20T02:18:18;101516.00;;;7.09;81.92
80502;BME280;70023;51.190;6.808;2023-12-20T02:23:20;101522.03;;;7.03;82.69
80502;BME280;70023;51.190;6.808;2023-12-20T02:28:21;101511.13;;;6.98;81.73
80502;BME280;70023;51.190;6.808;2023-12-20T02:33:26;101523.66;;;6.90;81.62
80502;BME280;70023;51.190;6.808;2023-12-20T02:38:27;101520.88;;;6.83;82.11
80502;BME280;70023;51.190;6.808;2023-12-20T02:43:28;101527.56;;;6.79;82.12
80502;BME280;70023;51.190;6.808;2023-12-20T02:48:29;101527.75;;;6.78;81.93
80502;BME280;70023;51.190;6.808;2023-12-20T02:53:30;101529.59;;;6.77;81.79
80502;BME280;70023;51.190;6.808;2023-12-20T02:58:31;101524.81;;;6.73;82.08
80502;BME280;70023;51.190;6.808;2023-12-20T03:03:32;101522.16;;;6.73;81.78
80502;BME280;70023;51.190;6.808;2023-12-20T03:08:33;101523.97;;;6.72;82.36
80502;BME280;70023;51.190;6.808;2023-12-20T03:13:34;101526.00;;;6.70;82.19
80502;BME280;70023;51.190;6.808;2023-12-20T03:18:35;101529.00;;;6.67;82.59
80502;BME280;70023;51.190;6.808;2023-12-20T03:23:37;101522.22;;;6.64;82.55
80502;BME280;70023;51.190;6.808;2023-12-20T03:28:38;101523.25;;;6.63;82.76
80502;BME280;70023;51.190;6.808;2023-12-20T03:33:39;101533.19;;;6.61;82.66
80502;BME280;70023;51.190;6.808;2023-12-20T03:38:40;101518.63;;;6.57;81.73
80502;BME280;70023;51.190;6.808;2023-12-20T03:43:41;101510.69;;;6.57;82.36
80502;BME280;70023;51.190;6.808;2023-12-20T03:48:42;101503.91;;;6.55;82.15
80502;BME280;70023;51.190;6.808;2023-12-20T03:53:43;101504.94;;;6.54;82.79
80502;BME280;70023;51.190;6.808;2023-12-20T03:58:44;101508.09;;;6.49;82.47
80502;BME280;70023;51.190;6.808;2023-12-20T04:03:45;101509.81;;;6.42;81.88
80502;BME280;70023;51.190;6.808;2023-12-20T04:08:46;101516.94;;;6.42;82.68
80502;BME280;70023;51.190;6.808;2023-12-20T04:13:47;101516.00;;;6.35;82.77
80502;BME280;70023;51.190;6.808;2023-12-20T04:18:48;101512.06;;;6.31;81.85
80502;BME280;70023;51.190;6.808;2023-12-20T04:23:49;101495.50;;;6.29;82.53
80502;BME280;70023;51.190;6.808;2023-12-20T04:28:50;101515.59;;;6.23;82.48
80502;BME280;70023;51.190;6.808;2023-12-20T04:33:51;101525.75;;;6.20;82.67
80502;BME280;70023;51.190;6.808;2023-12-20T04:38:53;101529.06;;;6.14;82.11
80502;BME280;70023;51.190;6.808;2023-12-20T04:43:54;101529.25;;;6.12;82.12
80502;BME280;70023;51.190;6.808;2023-12-20T04:48:55;101519.84;;;6.10;82.48
80502;BME280;70023;51.190;6.808;2023-12-20T04:53:56;101520.19;;;6.07;82.05
80502;BME280;70023;51.190;6.808;2023-12-20T04:58:57;101523.19;;;6.03;82.26
80502;BME280;70023;51.190;6.808;2023-12-20T05:03:58;101528.47;;;6.03;82.27
80502;BME280;70023;51.190;6.808;2023-12-20T05:08:59;101518.06;;;6.02;82.35
80502;BME280;70023;51.190;6.808;2023-12-20T05:14:00;101521.53;;;6.03;82.11
80502;BME280;70023;51.190;6.808;2023-12-20T05:19:01;101520.53;;;6.03;82.38
80502;BME280;70023;51.190;6.808;2023-12-20T05:24:06;101518.88;;;6.03;82.35
80502;BME280;70023;51.190;6.808;2023-12-20T05:29:07;101519.56;;;5.96;82.50
80502;BME280;70023;51.190;6.808;2023-12-20T05:34:08;101533.66;;;5.97;82.48
80502;BME280;70023;51.190;6.808;2023-12-20T05:39:09;101517.94;;;5.95;82.56
80502;BME280;70023;51.190;6.808;2023-12-20T05:44:10;101504.50;;;5.97;82.12
80502;BME280;70023;51.190;6.808;2023-12-20T05:49:11;101513.63;;;5.94;82.67
80502;BME280;70023;51.190;6.808;2023-12-20T05:54:13;101516.63;;;5.91;82.31
80502;BME280;70023;51.190;6.808;2023-12-20T05:59:14;101505.22;;;5.91;82.68
80502;BME280;70023;51.190;6.808;2023-12-20T06:04:15;101515.81;;;5.91;82.36
80502;BME280;70023;51.190;6.808;2023-12-20T06:09:16;101513.81;;;5.93;82.26
80502;BME280;70023;51.190;6.808;2023-12-20T06:14:17;101524.22;;;5.94;81.98
80502;BME280;70023;51.190;6.808;2023-12-20T06:19:19;101526.06;;;5.94;82.22
80502;BME280;70023;51.190;6.808;2023-12-20T06:24:20;101535.81;;;5.93;81.76
80502;BME280;70023;51.190;6.808;2023-12-20T06:29:21;101531.34;;;5.94;81.83
80502;BME280;70023;51.190;6.808;2023-12-20T06:34:22;101526.53;;;5.97;82.29
80502;BME280;70023;51.190;6.808;2023-12-20T06:39:24;101534.50;;;5.97;82.14
80502;BME280;70023;51.190;6.808;2023-12-20T06:44:25;101523.25;;;5.95;81.94
80502;BME280;70023;51.190;6.808;2023-12-20T06:49:26;101529.19;;;5.97;82.48
80502;BME280;70023;51.190;6.808;2023-12-20T06:54:27;101527.53;;;5.96;82.46
80502;BME280;70023;51.190;6.808;2023-12-20T06:59:28;101532.66;;;5.98;82.29
80502;BME280;70023;51.190;6.808;2023-12-20T07:04:29;101527.00;;;6.01;82.26
80502;BME280;70023;51.190;6.808;2023-12-20T07:09:30;101518.88;;;6.03;81.77
80502;BME280;70023;51.190;6.808;2023-12-20T07:14:31;101521.34;;;6.04;81.96
80502;BME280;70023;51.190;6.808;2023-12-20T07:19:32;101525.03;;;6.03;81.80
80502;BME280;70023;51.190;6.808;2023-12-20T07:24:33;101525.03;;;6.03;82.02
80502;BME280;70023;51.190;6.808;2023-12-20T07:29:34;101525.03;;;6.03;81.76
80502;BME280;70023;51.190;6.808;2023-12-20T07:34:35;101528.13;;;6.07;81.85
80502;BME280;70023;51.190;6.808;2023-12-20T07:39:40;101522.66;;;6.08;82.08
80502;BME280;70023;51.190;6.808;2023-12-20T07:44:41;101522.31;;;6.11;82.47
80502;BME280;70023;51.190;6.808;2023-12-20T07:49:42;101528.44;;;6.12;81.46
80502;BME280;70023;51.190;6.808;2023-12-20T07:54:43;101523.78;;;6.14;81.60
80502;BME280;70023;51.190;6.808;2023-12-20T07:59:45;101523.78;;;6.14;81.86
80502;BME280;70023;51.190;6.808;2023-12-20T08:04:46;101529.72;;;6.16;81.51
80502;BME280;70023;51.190;6.808;2023-12-20T08:09:47;101528.09;;;6.15;82.16
80502;BME280;70023;51.190;6.808;2023-12-20T08:14:48;101534.88;;;6.17;81.41
80502;BME280;70023;51.190;6.808;2023-12-20T08:19:49;101528.72;;;6.17;81.62
80502;BME280;70023;51.190;6.808;2023-12-20T08:24:50;101529.19;;;6.20;81.46
80502;BME280;70023;51.190;6.808;2023-12-20T08:29:51;101531.84;;;6.20;81.63
80502;BME280;70023;51.190;6.808;2023-12-20T08:34:52;101528.19;;;6.21;81.46
80502;BME280;70023;51.190;6.808;2023-12-20T08:39:53;101532.81;;;6.27;81.39
80502;BME280;70023;51.190;6.808;2023-12-20T08:44:54;101537.94;;;6.29;81.81
80502;BME280;70023;51.190;6.808;2023-12-20T08:49:55;101550.84;;;6.32;81.66
80502;BME280;70023;51.190;6.808;2023-12-20T08:55:00;101541.88;;;6.33;81.18
80502;BME280;70023;51.190;6.808;2023-12-20T09:00:01;101544.53;;;6.33;81.98
80502;BME280;70023;51.190;6.808;2023-12-20T09:05:03;101552.97;;;6.36;81.26
80502;BME280;70023;51.190;6.808;2023-12-20T09:10:04;101547.81;;;6.35;81.82
80502;BME280;70023;51.190;6.808;2023-12-20T09:15:08;101536.03;;;6.37;81.15
80502;BME280;70023;51.190;6.808;2023-12-20T09:20:09;101526.25;;;6.38;81.71
80502;BME280;70023;51.190;6.808;2023-12-20T09:25:11;101522.44;;;6.40;81.57
80502;BME280;70023;51.190;6.808;2023-12-20T09:30:12;101531.84;;;6.43;81.51
80502;BME280;70023;51.190;6.808;2023-12-20T09:35:13;101528.22;;;6.44;81.93
80502;BME280;70023;51.190;6.808;2023-12-20T09:40:14;101523.56;;;6.46;81.50
80502;BME280;70023;51.190;6.808;2023-12-20T09:45:20;101528.84;;;6.46;81.84
80502;BME280;70023;51.190;6.808;2023-12-20T09:50:27;101526.66;;;6.49;81.58
80502;BME280;70023;51.190;6.808;2023-12-20T09:55:32;101522.19;;;6.50;81.33
80502;BME280;70023;51.190;6.808;2023-12-20T10:00:37;101513.88;;;6.53;81.46
80502;BME280;70023;51.190;6.808;2023-12-20T10:05:38;101511.84;;;6.55;81.39
80502;BME280;70023;51.190;6.808;2023-12-20T10:10:43;101520.47;;;6.57;81.67
80502;BME280;70023;51.190;6.808;2023-12-20T10:15:44;101531.56;;;6.60;81.30
80502;BME280;70023;51.190;6.808;2023-12-20T10:20:46;101518.09;;;6.62;81.52
80502;BME280;70023;51.190;6.808;2023-12-20T10:25:55;101524.03;;;6.64;81.81
80502;BME280;70023;51.190;6.808;2023-12-20T10:30:59;101506.94;;;6.66;80.85
80502;BME280;70023;51.190;6.808;2023-12-20T10:36:00;101495.34;;;6.67;81.47
80502;BME280;70023;51.190;6.808;2023-12-20T10:41:02;101489.84;;;6.69;80.64
80502;BME280;70023;51.190;6.808;2023-12-20T10:46:05;101490.47;;;6.71;81.62
80502;BME280;70023;51.190;6.808;2023-12-20T10:51:06;101485.84;;;6.73;81.41
80502;BME280;70023;51.190;6.808;2023-12-20T10:56:09;101480.16;;;6.76;80.43
80502;BME280;70023;51.190;6.808;2023-12-20T11:01:16;101477.97;;;6.80;80.93
80502;BME280;70023;51.190;6.808;2023-12-20T11:17:13;101493.97;;;6.86;80.80
80502;BME280;70023;51.190;6.808;2023-12-20T11:22:16;101484.84;;;6.89;80.50
80502;BME280;70023;51.190;6.808;2023-12-20T11:27:18;101468.91;;;6.89;80.48
80502;BME280;70023;51.190;6.808;2023-12-20T11:37:36;101460.41;;;6.93;81.35
80502;BME280;70023;51.190;6.808;2023-12-20T11:42:39;101458.56;;;6.94;80.73
80502;BME280;70023;51.190;6.808;2023-12-20T11:47:42;101472.31;;;6.97;80.73
80502;BME280;70023;51.190;6.808;2023-12-20T11:52:45;101458.00;;;6.98;80.38
80502;BME280;70023;51.190;6.808;2023-12-20T11:57:46;101461.31;;;7.00;80.64
80502;BME280;70023;51.190;6.808;2023-12-20T12:02:57;101456.47;;;7.04;81.32
80502;BME280;70023;51.190;6.808;2023-12-20T12:07:59;101440.34;;;7.05;81.08
80502;BME280;70023;51.190;6.808;2023-12-20T12:13:00;101430.19;;;7.09;80.99
80502;BME280;70023;51.190;6.808;2023-12-20T12:18:01;101433.13;;;7.14;80.51
80502;BME280;70023;51.190;6.808;2023-12-20T12:23:05;101431.72;;;7.18;80.92
80502;BME280;70023;51.190;6.808;2023-12-20T12:28:07;101425.22;;;7.20;81.22
80502;BME280;70023;51.190;6.808;2023-12-20T12:33:08;101420.75;;;7.21;80.09
80502;BME280;70023;51.190;6.808;2023-12-20T12:38:09;101418.91;;;7.21;80.89
80502;BME280;70023;51.190;6.808;2023-12-20T12:43:12;101416.91;;;7.23;80.20
80502;BME280;70023;51.190;6.808;2023-12-20T12:48:13;101414.88;;;7.25;80.38
80502;BME280;70023;51.190;6.808;2023-12-20T12:53:14;101394.25;;;7.27;81.10
80502;BME280;70023;51.190;6.808;2023-12-20T12:58:15;101384.25;;;7.29;80.97
80502;BME280;70023;51.190;6.808;2023-12-20T13:03:17;101401.03;;;7.30;80.95
80502;BME280;70023;51.190;6.808;2023-12-20T13:08:18;101406.16;;;7.31;80.62
80502;BME280;70023;51.190;6.808;2023-12-20T13:13:19;101381.44;;;7.31;80.33
80502;BME280;70023;51.190;6.808;2023-12-20T13:18:23;101365.50;;;7.31;80.48
80502;BME280;70023;51.190;6.808;2023-12-20T13:23:24;101369.16;;;7.30;80.29
80502;BME280;70023;51.190;6.808;2023-12-20T13:28:25;101350.56;;;7.30;80.69
80502;BME280;70023;51.190;6.808;2023-12-20T13:33:26;101335.66;;;7.29;80.46
80502;BME280;70023;51.190;6.808;2023-12-20T13:38:27;101330.34;;;7.29;81.34
80502;BME280;70023;51.190;6.808;2023-12-20T13:43:28;101326.84;;;7.28;80.98
80502;BME280;70023;51.190;6.808;2023-12-20T13:48:30;101325.19;;;7.27;80.49
80502;BME280;70023;51.190;6.808;2023-12-20T13:53:31;101332.34;;;7.27;80.60
80502;BME280;70023;51.190;6.808;2023-12-20T13:58:32;101313.94;;;7.25;80.68
80502;BME280;70023;51.190;6.808;2023-12-20T14:03:34;101313.94;;;7.25;80.50
80502;BME280;70023;51.190;6.808;2023-12-20T14:08:35;101313.94;;;7.25;80.55
80502;BME280;70023;51.190;6.808;2023-12-20T14:13:36;101325.56;;;7.24;80.52
80502;BME280;70023;51.190;6.808;2023-12-20T14:18:37;101322.09;;;7.24;81.55
80502;BME280;70023;51.190;6.808;2023-12-20T14:23:40;101307.16;;;7.23;81.04
80502;BME280;70023;51.190;6.808;2023-12-20T14:28:41;101299.84;;;7.25;80.69
80502;BME280;70023;51.190;6.808;2023-12-20T14:33:42;101293.88;;;7.23;81.42
80502;BME280;70023;51.190;6.808;2023-12-20T14:38:44;101302.50;;;7.25;80.88
80502;BME280;70023;51.190;6.808;2023-12-20T14:43:46;101310.47;;;7.25;81.18
80502;BME280;70023;51.190;6.808;2023-12-20T14:48:47;101305.16;;;7.25;80.41
80502;BME280;70023;51.190;6.808;2023-12-20T14:53:49;101319.47;;;7.24;80.93
80502;BME280;70023;51.190;6.808;2023-12-20T14:58:50;101312.47;;;7.23;81.05
80502;BME280;70023;51.190;6.808;2023-12-20T15:03:52;101311.28;;;7.25;80.38
80502;BME280;70023;51.190;6.808;2023-12-20T15:08:53;101299.00;;;7.24;80.41
80502;BME280;70023;51.190;6.808;2023-12-20T15:13:54;101296.34;;;7.24;81.10
80502;BME280;70023;51.190;6.808;2023-12-20T15:18:56;101300.66;;;7.25;81.02
80502;BME280;70023;51.190;6.808;2023-12-20T15:23:57;101299.84;;;7.25;81.29
80502;BME280;70023;51.190;6.808;2023-12-20T15:29:05;101289.84;;;7.27;81.39
80502;BME280;70023;51.190;6.808;2023-12-20T15:34:06;101299.66;;;7.26;81.26
80502;BME280;70023;51.190;6.808;2023-12-20T15:39:10;101300.47;;;7.27;81.14
80502;BME280;70023;51.190;6.808;2023-12-20T15:44:14;101279.03;;;7.28;80.41
80502;BME280;70023;51.190;6.808;2023-12-20T15:49:15;101278.00;;;7.29;80.42
80502;BME280;70023;51.190;6.808;2023-12-20T15:54:18;101275.19;;;7.31;81.56
80502;BME280;70023;51.190;6.808;2023-12-20T15:59:19;101272.69;;;7.29;81.26
80502;BME280;70023;51.190;6.808;2023-12-20T16:04:20;101272.69;;;7.29;80.71
80502;BME280;70023;51.190;6.808;2023-12-20T16:09:21;101272.53;;;7.31;81.42
80502;BME280;70023;51.190;6.808;2023-12-20T16:14:23;101277.00;;;7.30;81.59
80502;BME280;70023;51.190;6.808;2023-12-20T16:19:25;101256.75;;;7.29;81.51
80502;BME280;70023;51.190;6.808;2023-12-20T16:24:26;101267.22;;;7.31;81.41
80502;BME280;70023;51.190;6.808;2023-12-20T16:29:27;101261.28;;;7.29;80.63
80502;BME280;70023;51.190;6.808;2023-12-20T16:34:28;101253.09;;;7.30;80.75
80502;BME280;70023;51.190;6.808;2023-12-20T16:39:29;101247.78;;;7.30;81.58
80502;BME280;70023;51.190;6.808;2023-12-20T16:44:30;101238.78;;;7.31;80.61
80502;BME280;70023;51.190;6.808;2023-12-20T16:49:33;101243.31;;;7.31;81.57
80502;BME280;70023;51.190;6.808;2023-12-20T16:54:34;101236.97;;;7.32;81.08
80502;BME280;70023;51.190;6.808;2023-12-20T16:59:35;101240.44;;;7.32;81.39
80502;BME280;70023;51.190;6.808;2023-12-20T17:04:36;101241.28;;;7.33;81.24
80502;BME280;70023;51.190;6.808;2023-12-20T17:09:37;101229.63;;;7.34;81.52
80502;BME280;70023;51.190;6.808;2023-12-20T17:14:39;101228.63;;;7.35;80.57
80502;BME280;70023;51.190;6.808;2023-12-20T17:19:43;101219.81;;;7.34;81.43
80502;BME280;70023;51.190;6.808;2023-12-20T17:24:44;101218.81;;;7.35;81.69
80502;BME280;70023;51.190;6.808;2023-12-20T17:29:45;101210.03;;;7.35;81.17
80502;BME280;70023;51.190;6.808;2023-12-20T17:34:47;101206.53;;;7.34;81.03
80502;BME280;70023;51.190;6.808;2023-12-20T17:39:48;101198.41;;;7.36;80.70
80502;BME280;70023;51.190;6.808;2023-12-20T17:44:50;101190.59;;;7.34;81.65
80502;BME280;70023;51.190;6.808;2023-12-20T17:49:51;101185.28;;;7.34;81.62
80502;BME280;70023;51.190;6.808;2023-12-20T17:54:52;101183.47;;;7.35;80.95
80502;BME280;70023;51.190;6.808;2023-12-20T17:59:55;101171.00;;;7.35;80.90
80502;BME280;70023;51.190;6.808;2023-12-20T18:05:10;101157.72;;;7.35;81.15
80502;BME280;70023;51.190;6.808;2023-12-20T18:10:12;101153.25;;;7.36;81.17
80502;BME280;70023;51.190;6.808;2023-12-20T18:15:13;101152.22;;;7.37;81.53
80502;BME280;70023;51.190;6.808;2023-12-20T18:20:15;101150.38;;;7.38;81.61
80502;BME280;70023;51.190;6.808;2023-12-20T18:25:16;101142.22;;;7.39;81.80
80502;BME280;70023;51.190;6.808;2023-12-20T18:30:17;101126.94;;;7.41;81.34
80502;BME280;70023;51.190;6.808;2023-12-20T18:35:18;101116.09;;;7.43;81.58
80502;BME280;70023;51.190;6.808;2023-12-20T18:40:19;101118.38;;;7.46;81.23
80502;BME280;70023;51.190;6.808;2023-12-20T18:45:20;101116.34;;;7.48;80.62
80502;BME280;70023;51.190;6.808;2023-12-20T18:50:21;101096.69;;;7.49;80.57
80502;BME280;70023;51.190;6.808;2023-12-20T18:55:22;101091.22;;;7.50;80.94
80502;BME280;70023;51.190;6.808;2023-12-20T19:00:23;101089.19;;;7.52;81.52
80502;BME280;70023;51.190;6.808;2023-12-20T19:05:25;101079.16;;;7.54;81.55
80502;BME280;70023;51.190;6.808;2023-12-20T19:10:27;101080.63;;;7.57;81.41
80502;BME280;70023;51.190;6.808;2023-12-20T19:15:28;101074.09;;;7.59;81.38
80502;BME280;70023;51.190;6.808;2023-12-20T19:20:29;101065.09;;;7.60;81.59
80502;BME280;70023;51.190;6.808;2023-12-20T19:25:40;101053.28;;;7.63;81.65
80502;BME280;70023;51.190;6.808;2023-12-20T19:30:42;101046.91;;;7.64;81.72
80502;BME280;70023;51.190;6.808;2023-12-20T19:35:43;101039.56;;;7.66;81.50
80502;BME280;70023;51.190;6.808;2023-12-20T19:40:46;101047.34;;;7.67;81.13
80502;BME280;70023;51.190;6.808;2023-12-20T19:45:49;101038.16;;;7.70;81.64
80502;BME280;70023;51.190;6.808;2023-12-20T19:50:50;101028.16;;;7.72;81.25
80502;BME280;70023;51.190;6.808;2023-12-20T19:55:52;101011.16;;;7.73;81.86
80502;BME280;70023;51.190;6.808;2023-12-20T20:00:53;101012.63;;;7.75;81.10
80502;BME280;70023;51.190;6.808;2023-12-20T20:05:54;101007.13;;;7.77;80.81
80502;BME280;70023;51.190;6.808;2023-12-20T20:10:55;100989.97;;;7.79;80.97
80502;BME280;70023;51.190;6.808;2023-12-20T20:15:56;100997.72;;;7.81;81.75
80502;BME280;70023;51.190;6.808;2023-12-20T20:20:59;100994.06;;;7.82;81.64
80502;BME280;70023;51.190;6.808;2023-12-20T20:26:00;100988.31;;;7.85;80.77
80502;BME280;70023;51.190;6.808;2023-12-20T20:31:01;100962.38;;;7.87;81.65
80502;BME280;70023;51.190;6.808;2023-12-20T20:36:08;100956.84;;;7.88;80.95
80502;BME280;70023;51.190;6.808;2023-12-20T20:41:10;100955.00;;;7.89;80.91
80502;BME280;70023;51.190;6.808;2023-12-20T20:46:11;100938.03;;;7.90;81.47
80502;BME280;70023;51.190;6.808;2023-12-20T20:51:13;100945.00;;;7.91;81.54
80502;BME280;70023;51.190;6.808;2023-12-20T20:56:14;100947.66;;;7.91;81.55
80502;BME280;70023;51.190;6.808;2023-12-20T21:01:18;100957.28;;;7.92;82.07
80502;BME280;70023;51.190;6.808;2023-12-20T21:06:19;100951.97;;;7.92;80.88
80502;BME280;70023;51.190;6.808;2023-12-20T21:11:21;100953.56;;;7.93;80.95
80502;BME280;70023;51.190;6.808;2023-12-20T21:16:22;100951.75;;;7.93;81.13
80502;BME280;70023;51.190;6.808;2023-12-20T21:21:23;100942.13;;;7.92;81.71
80502;BME280;70023;51.190;6.808;2023-12-20T21:26:24;100931.31;;;7.94;80.75
80502;BME280;70023;51.190;6.808;2023-12-20T21:31:25;100923.31;;;7.94;81.40
80502;BME280;70023;51.190;6.808;2023-12-20T21:36:26;100911.66;;;7.95;80.67
80502;BME280;70023;51.190;6.808;2023-12-20T21:41:27;100902.66;;;7.96;80.69
80502;BME280;70023;51.190;6.808;2023-12-20T21:46:29;100912.47;;;7.95;80.78
80502;BME280;70023;51.190;6.808;2023-12-20T21:51:30;100888.53;;;7.95;80.75
80502;BME280;70023;51.190;6.808;2023-12-20T21:56:32;100875.25;;;7.95;81.64
80502;BME280;70023;51.190;6.808;2023-12-20T22:01:35;100876.06;;;7.96;81.79
80502;BME280;70023;51.190;6.808;2023-12-20T22:06:42;100879.75;;;7.95;81.06
80502;BME280;70023;51.190;6.808;2023-12-20T22:11:43;100866.44;;;7.95;81.14
80502;BME280;70023;51.190;6.808;2023-12-20T22:16:45;100868.09;;;7.96;80.88
80502;BME280;70023;51.190;6.808;2023-12-20T22:21:46;100856.63;;;7.95;81.82
80502;BME280;70023;51.190;6.808;2023-12-20T22:26:49;100852.16;;;7.96;81.57
80502;BME280;70023;51.190;6.808;2023-12-20T22:31:50;100853.75;;;7.97;81.57
80502;BME280;70023;51.190;6.808;2023-12-20T22:36:51;100836.81;;;7.98;80.95
80502;BME280;70023;51.190;6.808;2023-12-20T22:41:52;100843.78;;;7.99;81.89
80502;BME280;70023;51.190;6.808;2023-12-20T22:46:53;100851.75;;;7.99;81.01
80502;BME280;70023;51.190;6.808;2023-12-20T22:51:54;100828.59;;;7.99;81.03
80502;BME280;70023;51.190;6.808;2023-12-20T22:56:55;100837.41;;;8.00;81.13
80502;BME280;70023;51.190;6.808;2023-12-20T23:01:56;100824.13;;;8.00;81.13
80502;BME280;70023;51.190;6.808;2023-12-20T23:06:57;100817.78;;;8.01;81.47
80502;BME280;70023;51.190;6.808;2023-12-20T23:11:58;100808.78;;;8.02;81.19
80502;BME280;70023;51.190;6.808;2023-12-20T23:16:59;100791.81;;;8.03;82.16
80502;BME280;70023;51.190;6.808;2023-12-20T23:22:00;100796.13;;;8.04;82.04
80502;BME280;70023;51.190;6.808;2023-12-20T23:27:01;100803.06;;;8.05;81.99
80502;BME280;70023;51.190;6.808;2023-12-20T23:32:03;100797.50;;;8.07;81.42
80502;BME280;70023;51.190;6.808;2023-12-20T23:37:04;100777.06;;;8.07;82.12
80502;BME280;70023;51.190;6.808;2023-12-20T23:42:05;100761.09;;;8.07;82.02
80502;BME280;70023;51.190;6.808;2023-12-20T23:47:06;100751.06;;;8.09;81.13
80502;BME280;70023;51.190;6.808;2023-12-20T23:52:08;100743.91;;;8.10;81.61
80502;BME280;70023;51.190;6.808;2023-12-20T23:57:09;100733.28;;;8.10;80.99
